sensor_id;sensor_type;location;lat;lon;timestamp;P1;durP1;ratioP1;P2;durP2;ratioP2
28836;SDS011;50669;50.982;11.022;2023-03-23T00:01:10;3.33;;;1.60;;
28836;SDS011;50669;50.982;11.022;2023-03-23T00:03:47;1.85;;;1.15;;
28836;SDS011;50669;50.982;11.022;2023-03-23T00:06:15;1.38;;;0.90;;
28836;SDS011;50669;50.982;11.022;2023-03-23T00:08:43;1.35;;;0.95;;
28836;SDS011;50669;50.982;11.022;2023-03-23T00:11:14;1.55;;;1.00;;
28836;SDS011;50669;50.982;11.022;2023-03-23T00:13:46;1.40;;;1.00;;
28836;SDS011;50669;50.982;11.022;2023-03-23T00:16:21;1.20;;;0.98;;
28836;SDS011;50669;50.982;11.022;2023-03-23T00:19:05;2.15;;;0.90;;
28836;SDS011;50669;50.982;11.022;2023-03-23T00:21:38;3.83;;;1.05;;
28836;SDS011;50669;50.982;11.022;2023-03-23T00:24:10;2.58;;;1.13;;
28836;SDS011;50669;50.982;11.022;2023-03-23T00:26:42;2.13;;;1.23;;
28836;SDS011;50669;50.982;11.022;2023-03-23T00:29:16;5.00;;;1.55;;
28836;SDS011;50669;50.982;11.022;2023-03-23T00:31:47;1.45;;;0.90;;
28836;SDS011;50669;50.982;11.022;2023-03-23T00:34:16;1.27;;;1.02;;
28836;SDS011;50669;50.982;11.022;2023-03-23T00:36:45;1.83;;;0.77;;
28836;SDS011;50669;50.982;11.022;2023-03-23T00:39:12;1.83;;;1.20;;
28836;SDS011;50669;50.982;11.022;2023-03-23T00:41:41;3.17;;;1.10;;
28836;SDS011;50669;50.982;11.022;2023-03-23T00:44:09;1.30;;;0.93;;
28836;SDS011;50669;50.982;11.022;2023-03-23T00:46:45;2.78;;;1.00;;
28836;SDS011;50669;50.982;11.022;2023-03-23T00:49:13;2.08;;;0.80;;
28836;SDS011;50669;50.982;11.022;2023-03-23T00:51:41;2.03;;;1.00;;
28836;SDS011;50669;50.982;11.022;2023-03-23T00:54:07;1.98;;;0.93;;
28836;SDS011;50669;50.982;11.022;2023-03-23T00:56:34;1.30;;;1.00;;
28836;SDS011;50669;50.982;11.022;2023-03-23T00:58:59;3.22;;;1.20;;
28836;SDS011;50669;50.982;11.022;2023-03-23T01:01:27;2.40;;;1.05;;
28836;SDS011;50669;50.982;11.022;2023-03-23T01:03:53;1.90;;;1.00;;
28836;SDS011;50669;50.982;11.022;2023-03-23T01:06:26;2.70;;;1.10;;
28836;SDS011;50669;50.982;11.022;2023-03-23T01:08:56;1.35;;;1.02;;
28836;SDS011;50669;50.982;11.022;2023-03-23T01:11:28;2.38;;;0.80;;
28836;SDS011;50669;50.982;11.022;2023-03-23T01:13:56;1.75;;;1.20;;
28836;SDS011;50669;50.982;11.022;2023-03-23T01:16:25;1.95;;;1.05;;
28836;SDS011;50669;50.982;11.022;2023-03-23T01:18:51;2.70;;;1.20;;
28836;SDS011;50669;50.982;11.022;2023-03-23T01:21:17;2.40;;;1.10;;
28836;SDS011;50669;50.982;11.022;2023-03-23T01:23:46;2.95;;;1.10;;
28836;SDS011;50669;50.982;11.022;2023-03-23T01:26:14;1.52;;;0.90;;
28836;SDS011;50669;50.982;11.022;2023-03-23T01:28:42;3.17;;;0.95;;
28836;SDS011;50669;50.982;11.022;2023-03-23T01:31:10;2.38;;;1.50;;
28836;SDS011;50669;50.982;11.022;2023-03-23T01:33:38;1.60;;;1.00;;
28836;SDS011;50669;50.982;11.022;2023-03-23T01:36:10;1.80;;;1.30;;
28836;SDS011;50669;50.982;11.022;2023-03-23T01:38:41;1.83;;;1.02;;
28836;SDS011;50669;50.982;11.022;2023-03-23T01:41:08;2.35;;;1.55;;
28836;SDS011;50669;50.982;11.022;2023-03-23T01:43:52;3.72;;;1.55;;
28836;SDS011;50669;50.982;11.022;2023-03-23T01:46:23;2.20;;;1.42;;
28836;SDS011;50669;50.982;11.022;2023-03-23T01:48:50;1.23;;;1.10;;
28836;SDS011;50669;50.982;11.022;2023-03-23T01:51:18;2.17;;;1.10;;
28836;SDS011;50669;50.982;11.022;2023-03-23T01:53:46;2.83;;;1.15;;
28836;SDS011;50669;50.982;11.022;2023-03-23T01:56:18;1.48;;;0.90;;
28836;SDS011;50669;50.982;11.022;2023-03-23T01:58:49;1.27;;;0.90;;
28836;SDS011;50669;50.982;11.022;2023-03-23T02:01:17;2.22;;;1.30;;
28836;SDS011;50669;50.982;11.022;2023-03-23T02:03:44;1.95;;;0.88;;
28836;SDS011;50669;50.982;11.022;2023-03-23T02:06:11;2.60;;;1.17;;
28836;SDS011;50669;50.982;11.022;2023-03-23T02:08:37;1.85;;;1.13;;
28836;SDS011;50669;50.982;11.022;2023-03-23T02:11:15;3.53;;;1.35;;
28836;SDS011;50669;50.982;11.022;2023-03-23T02:13:46;2.03;;;0.93;;
28836;SDS011;50669;50.982;11.022;2023-03-23T02:16:25;1.30;;;0.98;;
28836;SDS011;50669;50.982;11.022;2023-03-23T02:28:04;2.20;;;1.42;;
28836;SDS011;50669;50.982;11.022;2023-03-23T02:36:19;2.17;;;1.50;;
28836;SDS011;50669;50.982;11.022;2023-03-23T02:41:38;3.33;;;1.40;;
28836;SDS011;50669;50.982;11.022;2023-03-23T02:44:10;2.50;;;1.05;;
28836;SDS011;50669;50.982;11.022;2023-03-23T02:46:38;1.55;;;1.10;;
28836;SDS011;50669;50.982;11.022;2023-03-23T02:49:05;1.35;;;1.25;;
28836;SDS011;50669;50.982;11.022;2023-03-23T02:51:35;2.13;;;1.27;;
28836;SDS011;50669;50.982;11.022;2023-03-23T02:54:03;1.77;;;1.15;;
28836;SDS011;50669;50.982;11.022;2023-03-23T02:56:30;2.08;;;1.20;;
28836;SDS011;50669;50.982;11.022;2023-03-23T02:58:58;2.20;;;1.15;;
28836;SDS011;50669;50.982;11.022;2023-03-23T03:03:57;0.95;;;0.70;;
28836;SDS011;50669;50.982;11.022;2023-03-23T03:12:06;1.95;;;0.98;;
28836;SDS011;50669;50.982;11.022;2023-03-23T03:14:39;3.67;;;1.10;;
28836;SDS011;50669;50.982;11.022;2023-03-23T03:17:29;1.38;;;1.27;;
28836;SDS011;50669;50.982;11.022;2023-03-23T03:19:57;2.40;;;1.25;;
28836;SDS011;50669;50.982;11.022;2023-03-23T03:22:35;2.05;;;1.10;;
28836;SDS011;50669;50.982;11.022;2023-03-23T03:25:05;1.95;;;1.17;;
28836;SDS011;50669;50.982;11.022;2023-03-23T03:27:37;2.70;;;1.30;;
28836;SDS011;50669;50.982;11.022;2023-03-23T03:30:05;1.85;;;1.35;;
28836;SDS011;50669;50.982;11.022;2023-03-23T03:32:38;1.65;;;0.73;;
28836;SDS011;50669;50.982;11.022;2023-03-23T03:35:09;1.75;;;0.98;;
28836;SDS011;50669;50.982;11.022;2023-03-23T03:37:35;1.40;;;1.15;;
28836;SDS011;50669;50.982;11.022;2023-03-23T03:40:06;2.33;;;1.33;;
28836;SDS011;50669;50.982;11.022;2023-03-23T03:42:37;1.92;;;1.10;;
28836;SDS011;50669;50.982;11.022;2023-03-23T03:45:03;1.45;;;1.15;;
28836;SDS011;50669;50.982;11.022;2023-03-23T03:47:30;1.58;;;1.10;;
28836;SDS011;50669;50.982;11.022;2023-03-23T03:49:56;1.25;;;1.00;;
28836;SDS011;50669;50.982;11.022;2023-03-23T03:52:24;2.17;;;1.08;;
28836;SDS011;50669;50.982;11.022;2023-03-23T03:54:50;1.08;;;0.90;;
28836;SDS011;50669;50.982;11.022;2023-03-23T03:57:16;2.67;;;1.30;;
28836;SDS011;50669;50.982;11.022;2023-03-23T03:59:42;1.40;;;1.00;;
28836;SDS011;50669;50.982;11.022;2023-03-23T04:02:08;2.35;;;1.10;;
28836;SDS011;50669;50.982;11.022;2023-03-23T04:04:38;2.05;;;1.02;;
28836;SDS011;50669;50.982;11.022;2023-03-23T04:07:06;1.40;;;1.10;;
28836;SDS011;50669;50.982;11.022;2023-03-23T04:09:34;2.28;;;0.98;;
28836;SDS011;50669;50.982;11.022;2023-03-23T04:12:02;1.38;;;0.93;;
28836;SDS011;50669;50.982;11.022;2023-03-23T04:14:27;3.35;;;1.35;;
28836;SDS011;50669;50.982;11.022;2023-03-23T04:16:53;2.80;;;1.50;;
28836;SDS011;50669;50.982;11.022;2023-03-23T04:19:22;1.60;;;1.10;;
28836;SDS011;50669;50.982;11.022;2023-03-23T04:21:50;1.35;;;1.00;;
28836;SDS011;50669;50.982;11.022;2023-03-23T04:24:18;1.92;;;1.05;;
28836;SDS011;50669;50.982;11.022;2023-03-23T04:26:50;2.08;;;1.00;;
28836;SDS011;50669;50.982;11.022;2023-03-23T04:29:19;1.60;;;0.98;;
28836;SDS011;50669;50.982;11.022;2023-03-23T04:31:45;1.75;;;1.05;;
28836;SDS011;50669;50.982;11.022;2023-03-23T04:34:11;1.48;;;1.10;;
28836;SDS011;50669;50.982;11.022;2023-03-23T04:36:42;2.97;;;1.05;;
28836;SDS011;50669;50.982;11.022;2023-03-23T04:39:11;2.22;;;0.88;;
28836;SDS011;50669;50.982;11.022;2023-03-23T04:41:38;2.50;;;0.90;;
28836;SDS011;50669;50.982;11.022;2023-03-23T04:44:05;1.95;;;1.15;;
28836;SDS011;50669;50.982;11.022;2023-03-23T04:46:32;2.08;;;1.08;;
28836;SDS011;50669;50.982;11.022;2023-03-23T04:48:58;2.17;;;1.17;;
28836;SDS011;50669;50.982;11.022;2023-03-23T04:51:28;1.63;;;1.00;;
28836;SDS011;50669;50.982;11.022;2023-03-23T04:53:54;1.35;;;0.90;;
28836;SDS011;50669;50.982;11.022;2023-03-23T04:56:19;1.95;;;1.17;;
28836;SDS011;50669;50.982;11.022;2023-03-23T04:58:45;2.13;;;1.20;;
28836;SDS011;50669;50.982;11.022;2023-03-23T05:01:12;2.83;;;1.00;;
28836;SDS011;50669;50.982;11.022;2023-03-23T05:03:45;1.50;;;0.90;;
28836;SDS011;50669;50.982;11.022;2023-03-23T05:06:10;1.55;;;1.17;;
28836;SDS011;50669;50.982;11.022;2023-03-23T05:08:36;1.80;;;1.10;;
28836;SDS011;50669;50.982;11.022;2023-03-23T05:11:04;3.05;;;1.15;;
28836;SDS011;50669;50.982;11.022;2023-03-23T05:13:33;1.85;;;1.00;;
28836;SDS011;50669;50.982;11.022;2023-03-23T05:16:02;1.45;;;0.90;;
28836;SDS011;50669;50.982;11.022;2023-03-23T05:18:29;2.28;;;0.90;;
28836;SDS011;50669;50.982;11.022;2023-03-23T05:20:59;1.80;;;1.10;;
28836;SDS011;50669;50.982;11.022;2023-03-23T05:23:28;1.70;;;1.10;;
28836;SDS011;50669;50.982;11.022;2023-03-23T05:25:56;1.73;;;1.17;;
28836;SDS011;50669;50.982;11.022;2023-03-23T05:28:25;2.25;;;0.90;;
28836;SDS011;50669;50.982;11.022;2023-03-23T05:30:55;2.40;;;1.23;;
28836;SDS011;50669;50.982;11.022;2023-03-23T05:33:24;1.50;;;1.17;;
28836;SDS011;50669;50.982;11.022;2023-03-23T05:35:50;1.80;;;1.00;;
28836;SDS011;50669;50.982;11.022;2023-03-23T05:38:18;1.98;;;0.73;;
28836;SDS011;50669;50.982;11.022;2023-03-23T05:40:47;1.60;;;0.80;;
28836;SDS011;50669;50.982;11.022;2023-03-23T05:43:13;1.00;;;0.77;;
28836;SDS011;50669;50.982;11.022;2023-03-23T05:45:39;1.80;;;1.00;;
28836;SDS011;50669;50.982;11.022;2023-03-23T05:48:07;1.42;;;0.80;;
28836;SDS011;50669;50.982;11.022;2023-03-23T05:50:38;2.33;;;0.95;;
28836;SDS011;50669;50.982;11.022;2023-03-23T05:53:04;2.03;;;0.80;;
28836;SDS011;50669;50.982;11.022;2023-03-23T05:55:30;1.85;;;0.82;;
28836;SDS011;50669;50.982;11.022;2023-03-23T05:57:55;1.98;;;1.27;;
28836;SDS011;50669;50.982;11.022;2023-03-23T06:00:23;4.00;;;1.30;;
28836;SDS011;50669;50.982;11.022;2023-03-23T06:02:57;1.85;;;1.00;;
28836;SDS011;50669;50.982;11.022;2023-03-23T06:05:23;1.88;;;1.17;;
28836;SDS011;50669;50.982;11.022;2023-03-23T06:07:50;2.20;;;1.10;;
28836;SDS011;50669;50.982;11.022;2023-03-23T06:10:17;3.05;;;1.48;;
28836;SDS011;50669;50.982;11.022;2023-03-23T06:12:42;3.47;;;1.30;;
28836;SDS011;50669;50.982;11.022;2023-03-23T06:15:08;2.45;;;1.27;;
28836;SDS011;50669;50.982;11.022;2023-03-23T06:17:35;5.53;;;1.40;;
28836;SDS011;50669;50.982;11.022;2023-03-23T06:20:03;2.13;;;1.13;;
28836;SDS011;50669;50.982;11.022;2023-03-23T06:22:38;2.33;;;1.30;;
28836;SDS011;50669;50.982;11.022;2023-03-23T06:25:08;2.17;;;1.23;;
28836;SDS011;50669;50.982;11.022;2023-03-23T06:27:36;1.75;;;1.02;;
28836;SDS011;50669;50.982;11.022;2023-03-23T06:30:02;3.08;;;1.27;;
28836;SDS011;50669;50.982;11.022;2023-03-23T06:32:30;2.60;;;1.17;;
28836;SDS011;50669;50.982;11.022;2023-03-23T06:34:59;3.33;;;1.30;;
28836;SDS011;50669;50.982;11.022;2023-03-23T06:37:24;2.97;;;1.00;;
28836;SDS011;50669;50.982;11.022;2023-03-23T06:39:54;2.40;;;1.20;;
28836;SDS011;50669;50.982;11.022;2023-03-23T06:42:21;4.30;;;1.48;;
28836;SDS011;50669;50.982;11.022;2023-03-23T06:44:49;5.15;;;1.40;;
28836;SDS011;50669;50.982;11.022;2023-03-23T06:47:15;2.90;;;1.35;;
28836;SDS011;50669;50.982;11.022;2023-03-23T06:49:41;2.28;;;1.00;;
28836;SDS011;50669;50.982;11.022;2023-03-23T06:52:07;2.72;;;1.10;;
28836;SDS011;50669;50.982;11.022;2023-03-23T06:54:33;4.25;;;1.38;;
28836;SDS011;50669;50.982;11.022;2023-03-23T06:56:58;2.95;;;1.17;;
28836;SDS011;50669;50.982;11.022;2023-03-23T06:59:26;3.08;;;1.10;;
28836;SDS011;50669;50.982;11.022;2023-03-23T07:01:52;2.30;;;1.20;;
28836;SDS011;50669;50.982;11.022;2023-03-23T07:04:20;2.28;;;1.23;;
28836;SDS011;50669;50.982;11.022;2023-03-23T07:06:46;3.40;;;1.05;;
28836;SDS011;50669;50.982;11.022;2023-03-23T07:09:12;3.22;;;1.50;;
28836;SDS011;50669;50.982;11.022;2023-03-23T07:11:38;2.63;;;1.08;;
28836;SDS011;50669;50.982;11.022;2023-03-23T07:14:03;2.63;;;1.17;;
28836;SDS011;50669;50.982;11.022;2023-03-23T07:16:31;2.85;;;1.27;;
28836;SDS011;50669;50.982;11.022;2023-03-23T07:18:59;2.15;;;1.35;;
28836;SDS011;50669;50.982;11.022;2023-03-23T07:21:26;2.42;;;1.50;;
28836;SDS011;50669;50.982;11.022;2023-03-23T07:23:52;1.80;;;0.90;;
28836;SDS011;50669;50.982;11.022;2023-03-23T07:26:17;2.10;;;0.93;;
28836;SDS011;50669;50.982;11.022;2023-03-23T07:28:43;3.00;;;1.10;;
28836;SDS011;50669;50.982;11.022;2023-03-23T07:31:10;2.05;;;1.00;;
28836;SDS011;50669;50.982;11.022;2023-03-23T07:33:36;2.10;;;1.05;;
28836;SDS011;50669;50.982;11.022;2023-03-23T07:36:05;3.80;;;1.15;;
28836;SDS011;50669;50.982;11.022;2023-03-23T07:38:31;1.80;;;0.90;;
28836;SDS011;50669;50.982;11.022;2023-03-23T07:40:59;1.58;;;1.10;;
28836;SDS011;50669;50.982;11.022;2023-03-23T07:43:27;2.20;;;1.00;;
28836;SDS011;50669;50.982;11.022;2023-03-23T07:45:53;2.92;;;1.20;;
28836;SDS011;50669;50.982;11.022;2023-03-23T07:48:19;1.77;;;1.10;;
28836;SDS011;50669;50.982;11.022;2023-03-23T07:50:45;2.70;;;1.10;;
28836;SDS011;50669;50.982;11.022;2023-03-23T07:53:13;2.67;;;1.20;;
28836;SDS011;50669;50.982;11.022;2023-03-23T07:55:38;1.98;;;1.05;;
28836;SDS011;50669;50.982;11.022;2023-03-23T07:58:04;2.42;;;1.40;;
28836;SDS011;50669;50.982;11.022;2023-03-23T08:00:33;1.85;;;1.10;;
28836;SDS011;50669;50.982;11.022;2023-03-23T08:02:59;1.73;;;1.10;;
28836;SDS011;50669;50.982;11.022;2023-03-23T08:05:26;2.63;;;1.15;;
28836;SDS011;50669;50.982;11.022;2023-03-23T08:07:53;2.63;;;1.10;;
28836;SDS011;50669;50.982;11.022;2023-03-23T08:10:21;1.67;;;0.80;;
28836;SDS011;50669;50.982;11.022;2023-03-23T08:12:52;1.40;;;1.00;;
28836;SDS011;50669;50.982;11.022;2023-03-23T08:15:20;2.95;;;1.30;;
28836;SDS011;50669;50.982;11.022;2023-03-23T08:17:52;2.15;;;0.73;;
28836;SDS011;50669;50.982;11.022;2023-03-23T08:20:23;3.50;;;1.10;;
28836;SDS011;50669;50.982;11.022;2023-03-23T08:22:53;2.08;;;1.05;;
28836;SDS011;50669;50.982;11.022;2023-03-23T08:25:21;2.53;;;1.10;;
28836;SDS011;50669;50.982;11.022;2023-03-23T08:27:49;2.63;;;1.13;;
28836;SDS011;50669;50.982;11.022;2023-03-23T08:30:16;1.98;;;0.80;;
28836;SDS011;50669;50.982;11.022;2023-03-23T08:32:44;1.10;;;1.00;;
28836;SDS011;50669;50.982;11.022;2023-03-23T08:35:13;1.45;;;0.85;;
28836;SDS011;50669;50.982;11.022;2023-03-23T08:37:43;1.88;;;1.35;;
28836;SDS011;50669;50.982;11.022;2023-03-23T08:40:09;1.85;;;0.93;;
28836;SDS011;50669;50.982;11.022;2023-03-23T08:42:39;2.47;;;1.05;;
28836;SDS011;50669;50.982;11.022;2023-03-23T08:45:09;1.13;;;0.90;;
28836;SDS011;50669;50.982;11.022;2023-03-23T08:47:42;1.30;;;1.17;;
28836;SDS011;50669;50.982;11.022;2023-03-23T08:50:10;1.48;;;1.02;;
28836;SDS011;50669;50.982;11.022;2023-03-23T08:52:38;2.05;;;1.08;;
28836;SDS011;50669;50.982;11.022;2023-03-23T08:55:06;2.22;;;1.17;;
28836;SDS011;50669;50.982;11.022;2023-03-23T08:57:34;1.65;;;1.02;;
28836;SDS011;50669;50.982;11.022;2023-03-23T09:00:01;1.42;;;0.85;;
28836;SDS011;50669;50.982;11.022;2023-03-23T09:05:11;1.55;;;0.73;;
28836;SDS011;50669;50.982;11.022;2023-03-23T09:07:38;3.95;;;1.15;;
28836;SDS011;50669;50.982;11.022;2023-03-23T09:10:08;2.08;;;0.98;;
28836;SDS011;50669;50.982;11.022;2023-03-23T09:12:34;2.03;;;0.85;;
28836;SDS011;50669;50.982;11.022;2023-03-23T09:15:01;1.42;;;0.77;;
28836;SDS011;50669;50.982;11.022;2023-03-23T09:17:33;1.85;;;1.05;;
28836;SDS011;50669;50.982;11.022;2023-03-23T09:20:05;1.50;;;0.93;;
28836;SDS011;50669;50.982;11.022;2023-03-23T09:22:41;1.10;;;0.63;;
28836;SDS011;50669;50.982;11.022;2023-03-23T09:25:12;1.98;;;0.90;;
28836;SDS011;50669;50.982;11.022;2023-03-23T09:27:40;1.00;;;0.80;;
28836;SDS011;50669;50.982;11.022;2023-03-23T09:30:07;1.45;;;1.00;;
28836;SDS011;50669;50.982;11.022;2023-03-23T09:32:37;1.58;;;0.80;;
28836;SDS011;50669;50.982;11.022;2023-03-23T09:35:05;2.20;;;1.20;;
28836;SDS011;50669;50.982;11.022;2023-03-23T09:40:06;1.42;;;0.93;;
28836;SDS011;50669;50.982;11.022;2023-03-23T09:42:39;2.38;;;0.90;;
28836;SDS011;50669;50.982;11.022;2023-03-23T09:45:28;1.85;;;1.13;;
28836;SDS011;50669;50.982;11.022;2023-03-23T09:50:32;1.38;;;0.98;;
28836;SDS011;50669;50.982;11.022;2023-03-23T09:53:09;1.20;;;0.98;;
28836;SDS011;50669;50.982;11.022;2023-03-23T09:55:36;1.35;;;0.90;;
28836;SDS011;50669;50.982;11.022;2023-03-23T09:58:10;1.52;;;0.90;;
28836;SDS011;50669;50.982;11.022;2023-03-23T10:00:50;1.98;;;0.90;;
28836;SDS011;50669;50.982;11.022;2023-03-23T10:03:30;1.27;;;0.98;;
28836;SDS011;50669;50.982;11.022;2023-03-23T10:06:02;4.30;;;1.20;;
28836;SDS011;50669;50.982;11.022;2023-03-23T10:08:32;2.38;;;0.98;;
28836;SDS011;50669;50.982;11.022;2023-03-23T10:16:03;1.23;;;1.02;;
28836;SDS011;50669;50.982;11.022;2023-03-23T10:18:58;1.70;;;0.95;;
28836;SDS011;50669;50.982;11.022;2023-03-23T10:21:34;2.67;;;1.08;;
28836;SDS011;50669;50.982;11.022;2023-03-23T10:24:04;1.45;;;0.82;;
28836;SDS011;50669;50.982;11.022;2023-03-23T10:32:16;2.45;;;1.40;;
28836;SDS011;50669;50.982;11.022;2023-03-23T10:37:12;2.25;;;1.45;;
28836;SDS011;50669;50.982;11.022;2023-03-23T10:39:59;1.90;;;1.10;;
28836;SDS011;50669;50.982;11.022;2023-03-23T10:42:29;1.45;;;0.98;;
28836;SDS011;50669;50.982;11.022;2023-03-23T10:44:58;1.88;;;1.10;;
28836;SDS011;50669;50.982;11.022;2023-03-23T10:47:28;1.63;;;1.20;;
28836;SDS011;50669;50.982;11.022;2023-03-23T10:52:38;2.13;;;1.20;;
28836;SDS011;50669;50.982;11.022;2023-03-23T10:57:35;2.70;;;1.50;;
28836;SDS011;50669;50.982;11.022;2023-03-23T11:02:35;2.08;;;1.40;;
28836;SDS011;50669;50.982;11.022;2023-03-23T11:05:13;1.88;;;1.23;;
28836;SDS011;50669;50.982;11.022;2023-03-23T11:07:49;1.83;;;1.20;;
28836;SDS011;50669;50.982;11.022;2023-03-23T11:10:27;1.30;;;1.17;;
28836;SDS011;50669;50.982;11.022;2023-03-23T11:12:59;2.08;;;1.33;;
28836;SDS011;50669;50.982;11.022;2023-03-23T11:15:30;1.88;;;1.20;;
28836;SDS011;50669;50.982;11.022;2023-03-23T11:18:02;1.88;;;1.30;;
28836;SDS011;50669;50.982;11.022;2023-03-23T11:20:41;2.00;;;1.60;;
28836;SDS011;50669;50.982;11.022;2023-03-23T11:26:12;2.38;;;1.45;;
28836;SDS011;50669;50.982;11.022;2023-03-23T11:28:51;1.83;;;1.35;;
28836;SDS011;50669;50.982;11.022;2023-03-23T11:31:35;2.80;;;1.23;;
28836;SDS011;50669;50.982;11.022;2023-03-23T11:34:11;2.25;;;1.38;;
28836;SDS011;50669;50.982;11.022;2023-03-23T11:36:42;3.13;;;1.35;;
28836;SDS011;50669;50.982;11.022;2023-03-23T11:41:45;1.55;;;1.45;;
28836;SDS011;50669;50.982;11.022;2023-03-23T11:44:11;2.15;;;1.67;;
28836;SDS011;50669;50.982;11.022;2023-03-23T11:49:18;1.70;;;1.40;;
28836;SDS011;50669;50.982;11.022;2023-03-23T11:51:54;1.83;;;1.42;;
28836;SDS011;50669;50.982;11.022;2023-03-23T11:54:35;1.75;;;1.23;;
28836;SDS011;50669;50.982;11.022;2023-03-23T11:57:06;2.33;;;1.50;;
28836;SDS011;50669;50.982;11.022;2023-03-23T11:59:38;2.85;;;1.70;;
28836;SDS011;50669;50.982;11.022;2023-03-23T12:07:50;2.05;;;1.55;;
28836;SDS011;50669;50.982;11.022;2023-03-23T12:10:38;1.80;;;1.60;;
28836;SDS011;50669;50.982;11.022;2023-03-23T12:15:48;2.20;;;1.70;;
28836;SDS011;50669;50.982;11.022;2023-03-23T12:23:53;2.70;;;1.98;;
28836;SDS011;50669;50.982;11.022;2023-03-23T12:26:50;2.00;;;1.50;;
28836;SDS011;50669;50.982;11.022;2023-03-23T12:30:29;2.33;;;1.75;;
28836;SDS011;50669;50.982;11.022;2023-03-23T12:35:45;1.80;;;1.50;;
28836;SDS011;50669;50.982;11.022;2023-03-23T12:37:57;3.80;;;1.80;;
28836;SDS011;50669;50.982;11.022;2023-03-23T12:43:35;2.47;;;1.85;;
28836;SDS011;50669;50.982;11.022;2023-03-23T12:46:14;2.28;;;1.73;;
28836;SDS011;50669;50.982;11.022;2023-03-23T12:48:52;2.20;;;1.92;;
28836;SDS011;50669;50.982;11.022;2023-03-23T12:51:31;2.92;;;1.80;;
28836;SDS011;50669;50.982;11.022;2023-03-23T12:57:00;2.58;;;1.77;;
28836;SDS011;50669;50.982;11.022;2023-03-23T12:59:48;4.32;;;1.95;;
28836;SDS011;50669;50.982;11.022;2023-03-23T13:02:41;1.90;;;1.60;;
28836;SDS011;50669;50.982;11.022;2023-03-23T13:05:14;2.85;;;1.73;;
28836;SDS011;50669;50.982;11.022;2023-03-23T13:07:52;2.70;;;2.10;;
28836;SDS011;50669;50.982;11.022;2023-03-23T13:13:18;2.53;;;1.80;;
28836;SDS011;50669;50.982;11.022;2023-03-23T13:20:55;2.88;;;2.10;;
28836;SDS011;50669;50.982;11.022;2023-03-23T13:23:39;2.15;;;1.90;;
28836;SDS011;50669;50.982;11.022;2023-03-23T13:26:12;2.25;;;2.05;;
28836;SDS011;50669;50.982;11.022;2023-03-23T13:31:27;2.42;;;2.00;;
28836;SDS011;50669;50.982;11.022;2023-03-23T13:33:59;3.13;;;2.15;;
28836;SDS011;50669;50.982;11.022;2023-03-23T13:36:42;2.13;;;1.77;;
28836;SDS011;50669;50.982;11.022;2023-03-23T13:39:25;2.97;;;2.50;;
28836;SDS011;50669;50.982;11.022;2023-03-23T13:49:51;2.75;;;2.30;;
28836;SDS011;50669;50.982;11.022;2023-03-23T14:10:34;2.60;;;2.33;;
28836;SDS011;50669;50.982;11.022;2023-03-23T14:13:05;2.85;;;2.40;;
28836;SDS011;50669;50.982;11.022;2023-03-23T14:15:43;2.78;;;2.25;;
28836;SDS011;50669;50.982;11.022;2023-03-23T14:18:18;2.90;;;2.20;;
28836;SDS011;50669;50.982;11.022;2023-03-23T14:20:46;2.90;;;2.20;;
28836;SDS011;50669;50.982;11.022;2023-03-23T14:23:17;3.25;;;2.38;;
28836;SDS011;50669;50.982;11.022;2023-03-23T14:25:46;3.08;;;2.30;;
28836;SDS011;50669;50.982;11.022;2023-03-23T14:28:36;3.03;;;2.35;;
28836;SDS011;50669;50.982;11.022;2023-03-23T14:31:12;2.95;;;2.33;;
28836;SDS011;50669;50.982;11.022;2023-03-23T14:33:45;2.53;;;2.33;;
28836;SDS011;50669;50.982;11.022;2023-03-23T14:36:15;2.45;;;2.13;;
28836;SDS011;50669;50.982;11.022;2023-03-23T14:41:29;3.20;;;2.55;;
28836;SDS011;50669;50.982;11.022;2023-03-23T14:44:01;2.55;;;2.13;;
28836;SDS011;50669;50.982;11.022;2023-03-23T14:46:29;3.08;;;2.60;;
28836;SDS011;50669;50.982;11.022;2023-03-23T14:48:56;2.83;;;2.30;;
28836;SDS011;50669;50.982;11.022;2023-03-23T14:51:28;3.65;;;2.30;;
28836;SDS011;50669;50.982;11.022;2023-03-23T14:53:54;2.60;;;2.40;;
28836;SDS011;50669;50.982;11.022;2023-03-23T14:56:23;3.25;;;2.35;;
28836;SDS011;50669;50.982;11.022;2023-03-23T14:58:53;2.67;;;2.45;;
28836;SDS011;50669;50.982;11.022;2023-03-23T15:01:20;2.60;;;2.25;;
28836;SDS011;50669;50.982;11.022;2023-03-23T15:06:28;3.03;;;2.13;;
28836;SDS011;50669;50.982;11.022;2023-03-23T15:08:56;2.80;;;2.28;;
28836;SDS011;50669;50.982;11.022;2023-03-23T15:11:34;3.50;;;2.58;;
28836;SDS011;50669;50.982;11.022;2023-03-23T15:14:07;2.72;;;2.00;;
28836;SDS011;50669;50.982;11.022;2023-03-23T15:16:45;2.67;;;2.35;;
28836;SDS011;50669;50.982;11.022;2023-03-23T15:19:16;3.40;;;2.38;;
28836;SDS011;50669;50.982;11.022;2023-03-23T15:21:50;3.00;;;2.60;;
28836;SDS011;50669;50.982;11.022;2023-03-23T15:27:02;2.88;;;2.55;;
28836;SDS011;50669;50.982;11.022;2023-03-23T15:29:31;3.78;;;2.75;;
28836;SDS011;50669;50.982;11.022;2023-03-23T15:31:57;3.58;;;2.47;;
28836;SDS011;50669;50.982;11.022;2023-03-23T15:34:30;2.38;;;2.17;;
28836;SDS011;50669;50.982;11.022;2023-03-23T15:36:59;2.60;;;2.15;;
28836;SDS011;50669;50.982;11.022;2023-03-23T15:39:27;2.55;;;2.35;;
28836;SDS011;50669;50.982;11.022;2023-03-23T15:41:55;2.95;;;2.20;;
28836;SDS011;50669;50.982;11.022;2023-03-23T15:44:29;2.55;;;2.33;;
28836;SDS011;50669;50.982;11.022;2023-03-23T15:47:34;2.88;;;2.53;;
28836;SDS011;50669;50.982;11.022;2023-03-23T15:50:08;2.72;;;2.42;;
28836;SDS011;50669;50.982;11.022;2023-03-23T15:52:34;2.65;;;2.25;;
28836;SDS011;50669;50.982;11.022;2023-03-23T15:55:00;3.10;;;2.67;;
28836;SDS011;50669;50.982;11.022;2023-03-23T15:57:26;2.67;;;2.35;;
28836;SDS011;50669;50.982;11.022;2023-03-23T15:59:51;2.60;;;2.28;;
28836;SDS011;50669;50.982;11.022;2023-03-23T16:02:20;2.50;;;2.30;;
28836;SDS011;50669;50.982;11.022;2023-03-23T16:04:50;2.63;;;2.38;;
28836;SDS011;50669;50.982;11.022;2023-03-23T16:07:16;2.63;;;2.33;;
28836;SDS011;50669;50.982;11.022;2023-03-23T16:09:47;2.85;;;2.42;;
28836;SDS011;50669;50.982;11.022;2023-03-23T16:12:13;2.72;;;2.47;;
28836;SDS011;50669;50.982;11.022;2023-03-23T16:14:39;2.75;;;2.35;;
28836;SDS011;50669;50.982;11.022;2023-03-23T16:17:05;2.80;;;2.45;;
28836;SDS011;50669;50.982;11.022;2023-03-23T16:19:37;3.25;;;2.38;;
28836;SDS011;50669;50.982;11.022;2023-03-23T16:22:03;3.05;;;2.40;;
28836;SDS011;50669;50.982;11.022;2023-03-23T16:24:31;3.42;;;2.42;;
28836;SDS011;50669;50.982;11.022;2023-03-23T16:26:59;3.03;;;2.08;;
28836;SDS011;50669;50.982;11.022;2023-03-23T16:29:25;3.28;;;2.17;;
28836;SDS011;50669;50.982;11.022;2023-03-23T16:31:51;2.90;;;2.30;;
28836;SDS011;50669;50.982;11.022;2023-03-23T16:34:17;2.97;;;2.10;;
28836;SDS011;50669;50.982;11.022;2023-03-23T16:36:43;2.83;;;2.45;;
28836;SDS011;50669;50.982;11.022;2023-03-23T16:39:10;2.28;;;1.88;;
28836;SDS011;50669;50.982;11.022;2023-03-23T16:41:36;3.00;;;2.40;;
28836;SDS011;50669;50.982;11.022;2023-03-23T16:44:05;2.50;;;2.30;;
28836;SDS011;50669;50.982;11.022;2023-03-23T16:46:30;2.70;;;2.47;;
28836;SDS011;50669;50.982;11.022;2023-03-23T16:48:56;2.70;;;2.30;;
28836;SDS011;50669;50.982;11.022;2023-03-23T16:51:22;3.17;;;2.53;;
28836;SDS011;50669;50.982;11.022;2023-03-23T16:53:47;2.25;;;2.05;;
28836;SDS011;50669;50.982;11.022;2023-03-23T16:56:13;2.75;;;2.20;;
28836;SDS011;50669;50.982;11.022;2023-03-23T16:58:39;2.50;;;2.30;;
28836;SDS011;50669;50.982;11.022;2023-03-23T17:01:06;3.10;;;2.63;;